sensor_id;sensor_type;location;lat;lon;timestamp;pressure;altitude;pressure_sealevel;temperature;humidity
22649;BME280;11491;41.942;24.220;2023-02-22T00:01:09;89867.59;;;2.22;67.99
22649;BME280;11491;41.942;24.220;2023-02-22T00:03:47;89870.75;;;2.24;66.41
22649;BME280;11491;41.942;24.220;2023-02-22T00:06:18;89868.19;;;2.32;65.32
22649;BME280;11491;41.942;24.220;2023-02-22T00:08:46;89867.59;;;2.35;64.84
22649;BME280;11491;41.942;24.220;2023-02-22T00:11:14;89868.28;;;2.27;64.98
22649;BME280;11491;41.942;24.220;2023-02-22T00:13:41;89871.91;;;2.04;67.69
22649;BME280;11491;41.942;24.220;2023-02-22T00:16:13;89875.41;;;2.13;66.13
22649;BME280;11491;41.942;24.220;2023-02-22T00:18:40;89867.19;;;2.01;65.95
22649;BME280;11491;41.942;24.220;2023-02-22T00:21:10;89867.78;;;1.98;66.45
22649;BME280;11491;41.942;24.220;2023-02-22T00:23:41;89863.19;;;1.89;67.00
22649;BME280;11491;41.942;24.220;2023-02-22T00:26:11;89872.44;;;1.73;68.33
22649;BME280;11491;41.942;24.220;2023-02-22T00:28:38;89857.63;;;1.77;68.40
22649;BME280;11491;41.942;24.220;2023-02-22T00:31:06;89865.63;;;2.00;66.59
22649;BME280;11491;41.942;24.220;2023-02-22T00:33:34;89872.47;;;2.01;66.13
22649;BME280;11491;41.942;24.220;2023-02-22T00:36:01;89867.38;;;1.77;67.00
22649;BME280;11491;41.942;24.220;2023-02-22T00:38:28;89872.16;;;1.88;66.51
22649;BME280;11491;41.942;24.220;2023-02-22T00:40:56;89871.47;;;1.83;68.04
22649;BME280;11491;41.942;24.220;2023-02-22T00:43:22;89862.28;;;1.80;67.88
22649;BME280;11491;41.942;24.220;2023-02-22T00:45:49;89869.53;;;1.88;68.43
22649;BME280;11491;41.942;24.220;2023-02-22T00:48:16;89870.69;;;1.82;68.80
22649;BME280;11491;41.942;24.220;2023-02-22T00:50:43;89869.72;;;1.78;69.00
22649;BME280;11491;41.942;24.220;2023-02-22T00:53:13;89869.13;;;1.81;68.62
22649;BME280;11491;41.942;24.220;2023-02-22T00:55:39;89854.38;;;1.80;67.65
22649;BME280;11491;41.942;24.220;2023-02-22T00:58:07;89865.53;;;1.77;67.14
22649;BME280;11491;41.942;24.220;2023-02-22T01:00:37;89851.91;;;1.56;68.15
22649;BME280;11491;41.942;24.220;2023-02-22T01:03:05;89868.44;;;1.62;68.44
22649;BME280;11491;41.942;24.220;2023-02-22T01:05:32;89864.03;;;1.71;67.86
22649;BME280;11491;41.942;24.220;2023-02-22T01:08:00;89852.13;;;1.60;68.32
22649;BME280;11491;41.942;24.220;2023-02-22T01:10:28;89863.63;;;1.64;67.70
22649;BME280;11491;41.942;24.220;2023-02-22T01:12:56;89855.06;;;1.72;67.85
22649;BME280;11491;41.942;24.220;2023-02-22T01:15:27;89853.50;;;1.71;67.74
22649;BME280;11491;41.942;24.220;2023-02-22T01:17:55;89850.34;;;1.55;68.24
22649;BME280;11491;41.942;24.220;2023-02-22T01:20:24;89840.75;;;1.45;69.68
22649;BME280;11491;41.942;24.220;2023-02-22T01:22:55;89853.34;;;1.48;69.92
22649;BME280;11491;41.942;24.220;2023-02-22T01:25:23;89838.94;;;1.60;69.12
22649;BME280;11491;41.942;24.220;2023-02-22T01:27:51;89843.72;;;1.58;69.55
22649;BME280;11491;41.942;24.220;2023-02-22T01:30:21;89844.84;;;1.51;69.38
22649;BME280;11491;41.942;24.220;2023-02-22T01:32:49;89848.16;;;1.43;70.19
22649;BME280;11491;41.942;24.220;2023-02-22T01:35:19;89831.16;;;1.36;70.19
22649;BME280;11491;41.942;24.220;2023-02-22T01:37:46;89848.56;;;1.50;70.08
22649;BME280;11491;41.942;24.220;2023-02-22T01:40:17;89836.91;;;1.57;69.31
22649;BME280;11491;41.942;24.220;2023-02-22T01:42:47;89832.28;;;1.48;69.89
22649;BME280;11491;41.942;24.220;2023-02-22T01:45:42;89828.50;;;1.55;69.38
22649;BME280;11491;41.942;24.220;2023-02-22T01:48:13;89848.00;;;1.54;69.18
22649;BME280;11491;41.942;24.220;2023-02-22T01:50:44;89825.94;;;1.49;69.90
22649;BME280;11491;41.942;24.220;2023-02-22T01:53:15;89832.34;;;1.43;69.98
22649;BME280;11491;41.942;24.220;2023-02-22T01:55:43;89835.66;;;1.35;70.87
22649;BME280;11491;41.942;24.220;2023-02-22T01:58:12;89816.31;;;1.26;71.27
22649;BME280;11491;41.942;24.220;2023-02-22T02:00:40;89840.59;;;1.23;71.12
22649;BME280;11491;41.942;24.220;2023-02-22T02:03:13;89826.13;;;1.39;70.40
22649;BME280;11491;41.942;24.220;2023-02-22T02:05:42;89822.13;;;1.09;71.00
22649;BME280;11491;41.942;24.220;2023-02-22T02:08:18;89816.72;;;1.19;71.79
22649;BME280;11491;41.942;24.220;2023-02-22T02:10:47;89825.53;;;1.42;70.58
22649;BME280;11491;41.942;24.220;2023-02-22T02:13:14;89819.44;;;1.28;71.26
22649;BME280;11491;41.942;24.220;2023-02-22T02:15:41;89823.31;;;1.49;69.90
22649;BME280;11491;41.942;24.220;2023-02-22T02:18:12;89821.22;;;1.46;69.97
22649;BME280;11491;41.942;24.220;2023-02-22T02:20:46;89821.59;;;1.26;70.30
22649;BME280;11491;41.942;24.220;2023-02-22T02:23:46;89826.84;;;1.26;71.20
22649;BME280;11491;41.942;24.220;2023-02-22T02:29:51;89837.31;;;1.31;69.87
22649;BME280;11491;41.942;24.220;2023-02-22T02:32:35;89839.94;;;1.31;70.02
22649;BME280;11491;41.942;24.220;2023-02-22T02:35:10;89835.59;;;1.07;70.81
22649;BME280;11491;41.942;24.220;2023-02-22T02:37:45;89845.53;;;1.11;71.12
22649;BME280;11491;41.942;24.220;2023-02-22T02:40:19;89831.22;;;1.17;70.39
22649;BME280;11491;41.942;24.220;2023-02-22T02:42:52;89853.28;;;1.21;70.76
22649;BME280;11491;41.942;24.220;2023-02-22T02:45:26;89838.56;;;1.20;70.19
22649;BME280;11491;41.942;24.220;2023-02-22T02:47:58;89848.41;;;0.95;71.97
22649;BME280;11491;41.942;24.220;2023-02-22T02:50:28;89859.38;;;1.02;72.65
22649;BME280;11491;41.942;24.220;2023-02-22T02:53:00;89858.78;;;1.05;72.71
22649;BME280;11491;41.942;24.220;2023-02-22T02:55:29;89863.69;;;1.12;72.38
22649;BME280;11491;41.942;24.220;2023-02-22T02:57:57;89850.22;;;1.14;72.02
22649;BME280;11491;41.942;24.220;2023-02-22T03:00:31;89859.47;;;1.30;71.37
22649;BME280;11491;41.942;24.220;2023-02-22T03:03:21;89862.09;;;1.30;71.47
22649;BME280;11491;41.942;24.220;2023-02-22T03:06:06;89858.84;;;1.19;71.72
22649;BME280;11491;41.942;24.220;2023-02-22T03:08:39;89860.41;;;1.20;71.64
22649;BME280;11491;41.942;24.220;2023-02-22T03:11:10;89853.31;;;1.02;71.63
22649;BME280;11491;41.942;24.220;2023-02-22T03:13:48;89863.38;;;1.33;70.79
22649;BME280;11491;41.942;24.220;2023-02-22T03:16:20;89865.16;;;1.37;70.43
22649;BME280;11491;41.942;24.220;2023-02-22T03:18:54;89870.41;;;1.37;70.38
22649;BME280;11491;41.942;24.220;2023-02-22T03:21:27;89868.34;;;1.34;70.75
22649;BME280;11491;41.942;24.220;2023-02-22T03:24:01;89866.44;;;1.21;71.70
22649;BME280;11491;41.942;24.220;2023-02-22T03:26:33;89859.22;;;1.45;70.69
22649;BME280;11491;41.942;24.220;2023-02-22T03:29:02;89862.50;;;1.37;70.65
22649;BME280;11491;41.942;24.220;2023-02-22T03:31:35;89863.66;;;1.31;71.60
22649;BME280;11491;41.942;24.220;2023-02-22T03:34:07;89866.50;;;1.35;71.27
22649;BME280;11491;41.942;24.220;2023-02-22T03:36:40;89861.31;;;1.29;70.95
22649;BME280;11491;41.942;24.220;2023-02-22T03:39:13;89867.63;;;1.28;70.89
22649;BME280;11491;41.942;24.220;2023-02-22T03:41:43;89865.06;;;1.42;70.48
22649;BME280;11491;41.942;24.220;2023-02-22T03:44:20;89861.44;;;1.38;70.24
22649;BME280;11491;41.942;24.220;2023-02-22T03:46:50;89866.50;;;1.35;70.92
22649;BME280;11491;41.942;24.220;2023-02-22T03:49:29;89872.47;;;1.40;70.38
22649;BME280;11491;41.942;24.220;2023-02-22T03:51:59;89867.63;;;1.15;71.43
22649;BME280;11491;41.942;24.220;2023-02-22T03:54:27;89866.44;;;1.21;71.70
22649;BME280;11491;41.942;24.220;2023-02-22T03:56:56;89870.31;;;1.10;72.15
22649;BME280;11491;41.942;24.220;2023-02-22T03:59:24;89853.53;;;1.05;71.99
22649;BME280;11491;41.942;24.220;2023-02-22T04:01:52;89868.31;;;1.01;72.57
22649;BME280;11491;41.942;24.220;2023-02-22T04:04:19;89872.47;;;1.07;72.26
22649;BME280;11491;41.942;24.220;2023-02-22T04:06:50;89862.91;;;1.12;72.33
22649;BME280;11491;41.942;24.220;2023-02-22T04:09:17;89869.41;;;1.00;71.84
22649;BME280;11491;41.942;24.220;2023-02-22T04:11:44;89870.97;;;1.01;72.08
22649;BME280;11491;41.942;24.220;2023-02-22T04:14:11;89874.00;;;1.08;72.06
22649;BME280;11491;41.942;24.220;2023-02-22T04:16:38;89871.97;;;1.05;72.36
22649;BME280;11491;41.942;24.220;2023-02-22T04:19:05;89861.00;;;0.98;71.49
22649;BME280;11491;41.942;24.220;2023-02-22T04:21:32;89868.16;;;1.12;71.78
22649;BME280;11491;41.942;24.220;2023-02-22T04:24:00;89872.28;;;1.18;71.76
22649;BME280;11491;41.942;24.220;2023-02-22T04:26:26;89883.00;;;1.07;71.89
22649;BME280;11491;41.942;24.220;2023-02-22T04:28:53;89880.44;;;1.02;72.06
22649;BME280;11491;41.942;24.220;2023-02-22T04:31:20;89883.00;;;1.07;71.85
22649;BME280;11491;41.942;24.220;2023-02-22T04:33:47;89874.00;;;1.08;71.60
22649;BME280;11491;41.942;24.220;2023-02-22T04:36:14;89882.28;;;0.83;72.42
22649;BME280;11491;41.942;24.220;2023-02-22T04:38:41;89873.81;;;0.86;72.87
22649;BME280;11491;41.942;24.220;2023-02-22T04:41:09;89862.78;;;0.84;72.15
22649;BME280;11491;41.942;24.220;2023-02-22T04:43:35;89873.16;;;0.94;71.52
22649;BME280;11491;41.942;24.220;2023-02-22T04:46:03;89885.00;;;0.78;72.33
22649;BME280;11491;41.942;24.220;2023-02-22T04:48:29;89884.28;;;0.91;72.87
22649;BME280;11491;41.942;24.220;2023-02-22T04:50:56;89880.97;;;0.99;72.01
22649;BME280;11491;41.942;24.220;2023-02-22T04:53:23;89876.53;;;0.81;72.52
22649;BME280;11491;41.942;24.220;2023-02-22T04:55:50;89884.41;;;0.81;73.10
22649;BME280;11491;41.942;24.220;2023-02-22T04:58:18;89883.28;;;0.87;73.14
22649;BME280;11491;41.942;24.220;2023-02-22T05:00:45;89854.69;;;0.61;73.00
22649;BME280;11491;41.942;24.220;2023-02-22T05:03:11;89875.53;;;0.96;72.21
22649;BME280;11491;41.942;24.220;2023-02-22T05:05:38;89877.50;;;1.04;71.55
22649;BME280;11491;41.942;24.220;2023-02-22T05:08:05;89880.66;;;0.87;71.75
22649;BME280;11491;41.942;24.220;2023-02-22T05:10:32;89877.78;;;0.64;73.29
22649;BME280;11491;41.942;24.220;2023-02-22T05:12:59;89886.53;;;0.79;72.92
22649;BME280;11491;41.942;24.220;2023-02-22T05:15:27;89885.56;;;0.75;73.91
22649;BME280;11491;41.942;24.220;2023-02-22T05:17:54;89875.50;;;0.77;72.94
22649;BME280;11491;41.942;24.220;2023-02-22T05:20:24;89886.53;;;0.79;73.06
22649;BME280;11491;41.942;24.220;2023-02-22T05:22:52;89885.56;;;0.75;73.40
22649;BME280;11491;41.942;24.220;2023-02-22T05:25:19;89889.97;;;0.98;73.32
22649;BME280;11491;41.942;24.220;2023-02-22T05:27:49;89889.38;;;1.01;72.58
22649;BME280;11491;41.942;24.220;2023-02-22T05:30:16;89880.34;;;0.89;72.45
22649;BME280;11491;41.942;24.220;2023-02-22T05:32:45;89877.16;;;0.73;73.18
22649;BME280;11491;41.942;24.220;2023-02-22T05:35:12;89888.34;;;0.83;73.14
22649;BME280;11491;41.942;24.220;2023-02-22T05:37:39;89899.00;;;0.92;73.67
22649;BME280;11491;41.942;24.220;2023-02-22T05:40:07;89886.13;;;1.10;73.83
22649;BME280;11491;41.942;24.220;2023-02-22T05:42:33;89891.72;;;1.22;73.71
22649;BME280;11491;41.942;24.220;2023-02-22T05:45:00;89888.34;;;1.35;72.95
22649;BME280;11491;41.942;24.220;2023-02-22T05:47:28;89886.63;;;1.44;72.81
22649;BME280;11491;41.942;24.220;2023-02-22T05:49:56;89892.88;;;1.48;72.47
22649;BME280;11491;41.942;24.220;2023-02-22T05:52:23;89897.97;;;1.59;73.43
22649;BME280;11491;41.942;24.220;2023-02-22T05:54:50;89895.84;;;1.61;73.18
22649;BME280;11491;41.942;24.220;2023-02-22T05:57:17;89892.53;;;1.69;72.53
22649;BME280;11491;41.942;24.220;2023-02-22T05:59:43;89898.84;;;1.87;71.94
22649;BME280;11491;41.942;24.220;2023-02-22T06:02:10;89905.38;;;2.03;71.40
22649;BME280;11491;41.942;24.220;2023-02-22T06:04:37;89904.03;;;2.06;72.32
22649;BME280;11491;41.942;24.220;2023-02-22T06:07:05;89902.00;;;2.17;71.72
22649;BME280;11491;41.942;24.220;2023-02-22T06:09:32;89892.81;;;2.28;71.69
22649;BME280;11491;41.942;24.220;2023-02-22T06:11:59;89910.19;;;2.43;71.93
22649;BME280;11491;41.942;24.220;2023-02-22T06:14:25;89887.91;;;2.49;71.81
22649;BME280;11491;41.942;24.220;2023-02-22T06:16:52;89907.44;;;2.75;71.69
22649;BME280;11491;41.942;24.220;2023-02-22T06:19:19;89916.13;;;2.90;70.70
22649;BME280;11491;41.942;24.220;2023-02-22T06:21:49;89908.69;;;2.92;70.20
22649;BME280;11491;41.942;24.220;2023-02-22T06:24:18;89912.31;;;2.96;70.73
22649;BME280;11491;41.942;24.220;2023-02-22T06:26:45;89921.06;;;3.05;71.19
22649;BME280;11491;41.942;24.220;2023-02-22T06:29:12;89910.88;;;3.12;71.16
22649;BME280;11491;41.942;24.220;2023-02-22T06:31:39;89916.75;;;3.23;70.25
22649;BME280;11491;41.942;24.220;2023-02-22T06:34:05;89912.50;;;3.36;70.50
22649;BME280;11491;41.942;24.220;2023-02-22T06:36:32;89903.94;;;3.39;70.53
22649;BME280;11491;41.942;24.220;2023-02-22T06:38:59;89916.94;;;3.49;70.20
22649;BME280;11491;41.942;24.220;2023-02-22T06:41:27;89906.06;;;3.51;70.15
22649;BME280;11491;41.942;24.220;2023-02-22T06:43:54;89918.38;;;3.55;69.42
22649;BME280;11491;41.942;24.220;2023-02-22T06:46:20;89915.06;;;3.50;70.09
22649;BME280;11491;41.942;24.220;2023-02-22T06:48:47;89908.16;;;3.62;70.21
22649;BME280;11491;41.942;24.220;2023-02-22T06:51:16;89912.34;;;3.86;69.78
22649;BME280;11491;41.942;24.220;2023-02-22T06:53:43;89912.72;;;3.93;69.11
22649;BME280;11491;41.942;24.220;2023-02-22T06:56:10;89902.44;;;4.23;68.38
22649;BME280;11491;41.942;24.220;2023-02-22T06:58:38;89900.84;;;4.53;67.34
22649;BME280;11491;41.942;24.220;2023-02-22T07:01:04;89902.16;;;4.73;66.36
22649;BME280;11491;41.942;24.220;2023-02-22T07:03:32;89909.03;;;4.91;65.86
22649;BME280;11491;41.942;24.220;2023-02-22T07:06:00;89905.66;;;5.17;65.75
22649;BME280;11491;41.942;24.220;2023-02-22T07:08:26;89890.09;;;5.42;64.32
22649;BME280;11491;41.942;24.220;2023-02-22T07:10:54;89901.28;;;5.73;64.13
22649;BME280;11491;41.942;24.220;2023-02-22T07:13:20;89903.03;;;6.04;63.02
22649;BME280;11491;41.942;24.220;2023-02-22T07:15:48;89899.22;;;6.22;62.81
22649;BME280;11491;41.942;24.220;2023-02-22T07:18:15;89896.63;;;6.52;62.56
22649;BME280;11491;41.942;24.220;2023-02-22T07:20:42;89889.63;;;6.77;61.91
22649;BME280;11491;41.942;24.220;2023-02-22T07:23:09;89895.25;;;7.05;59.95
22649;BME280;11491;41.942;24.220;2023-02-22T07:25:38;89896.81;;;7.36;58.31
22649;BME280;11491;41.942;24.220;2023-02-22T07:28:05;89883.31;;;7.62;57.72
22649;BME280;11491;41.942;24.220;2023-02-22T07:30:32;89883.16;;;8.01;56.59
22649;BME280;11491;41.942;24.220;2023-02-22T07:33:04;89887.13;;;8.28;55.84
22649;BME280;11491;41.942;24.220;2023-02-22T07:35:32;89883.97;;;8.59;54.54
22649;BME280;11491;41.942;24.220;2023-02-22T07:38:01;89883.31;;;8.87;53.69
22649;BME280;11491;41.942;24.220;2023-02-22T07:40:28;89871.56;;;9.00;52.63
22649;BME280;11491;41.942;24.220;2023-02-22T07:42:57;89866.22;;;9.24;52.09
22649;BME280;11491;41.942;24.220;2023-02-22T07:45:26;89860.16;;;9.52;51.36
22649;BME280;11491;41.942;24.220;2023-02-22T07:47:53;89866.97;;;9.78;50.46
22649;BME280;11491;41.942;24.220;2023-02-22T07:50:22;89875.34;;;10.04;50.01
22649;BME280;11491;41.942;24.220;2023-02-22T07:52:51;89864.84;;;10.11;47.66
22649;BME280;11491;41.942;24.220;2023-02-22T07:55:20;89865.72;;;10.16;46.41
22649;BME280;11491;41.942;24.220;2023-02-22T07:57:49;89868.53;;;10.35;47.80
22649;BME280;11491;41.942;24.220;2023-02-22T08:00:21;89855.13;;;10.47;46.34
22649;BME280;11491;41.942;24.220;2023-02-22T08:02:48;89859.44;;;10.68;44.64
22649;BME280;11491;41.942;24.220;2023-02-22T08:05:15;89853.22;;;10.95;43.68
22649;BME280;11491;41.942;24.220;2023-02-22T08:07:44;89862.09;;;11.31;42.18
22649;BME280;11491;41.942;24.220;2023-02-22T08:10:13;89860.59;;;11.69;42.21
22649;BME280;11491;41.942;24.220;2023-02-22T08:12:40;89852.78;;;12.15;44.10
22649;BME280;11491;41.942;24.220;2023-02-22T08:15:08;89858.91;;;12.58;43.54
22649;BME280;11491;41.942;24.220;2023-02-22T08:17:40;89853.47;;;12.97;40.06
22649;BME280;11491;41.942;24.220;2023-02-22T08:20:07;89845.16;;;13.29;37.97
22649;BME280;11491;41.942;24.220;2023-02-22T08:22:34;89847.00;;;13.25;37.48
22649;BME280;11491;41.942;24.220;2023-02-22T08:25:02;89845.53;;;13.27;37.00
22649;BME280;11491;41.942;24.220;2023-02-22T08:27:30;89850.94;;;13.31;37.59
22649;BME280;11491;41.942;24.220;2023-02-22T08:29:58;89847.16;;;13.35;36.28
22649;BME280;11491;41.942;24.220;2023-02-22T08:32:25;89838.34;;;13.62;36.17
22649;BME280;11491;41.942;24.220;2023-02-22T08:34:52;89844.59;;;13.99;35.21
22649;BME280;11491;41.942;24.220;2023-02-22T08:37:19;89840.47;;;14.73;35.87
22649;BME280;11491;41.942;24.220;2023-02-22T08:39:45;89830.78;;;15.10;33.33
22649;BME280;11491;41.942;24.220;2023-02-22T08:42:14;89824.63;;;15.09;33.81
22649;BME280;11491;41.942;24.220;2023-02-22T08:44:40;89831.94;;;15.64;34.93
22649;BME280;11491;41.942;24.220;2023-02-22T08:47:07;89832.84;;;15.82;33.28
22649;BME280;11491;41.942;24.220;2023-02-22T08:49:34;89832.13;;;15.89;31.71
22649;BME280;11491;41.942;24.220;2023-02-22T08:52:01;89834.50;;;16.05;32.53
22649;BME280;11491;41.942;24.220;2023-02-22T08:54:27;89829.94;;;16.12;32.56
22649;BME280;11491;41.942;24.220;2023-02-22T08:56:54;89828.44;;;16.29;32.78
22649;BME280;11491;41.942;24.220;2023-02-22T08:59:22;89832.16;;;16.94;31.24
22649;BME280;11491;41.942;24.220;2023-02-22T09:01:49;89827.16;;;17.47;29.60
22649;BME280;11491;41.942;24.220;2023-02-22T09:04:16;89823.66;;;17.60;31.01
22649;BME280;11491;41.942;24.220;2023-02-22T09:06:43;89815.88;;;18.09;30.82
22649;BME280;11491;41.942;24.220;2023-02-22T09:09:13;89818.38;;;18.63;30.36
22649;BME280;11491;41.942;24.220;2023-02-22T09:11:42;89812.13;;;18.80;29.84
22649;BME280;11491;41.942;24.220;2023-02-22T09:14:09;89807.19;;;19.31;29.59
22649;BME280;11491;41.942;24.220;2023-02-22T09:16:37;89794.50;;;19.66;28.46
22649;BME280;11491;41.942;24.220;2023-02-22T09:19:03;89805.25;;;19.80;28.89
22649;BME280;11491;41.942;24.220;2023-02-22T09:21:30;89797.25;;;20.04;27.58
22649;BME280;11491;41.942;24.220;2023-02-22T09:23:57;89800.84;;;20.31;28.09
22649;BME280;11491;41.942;24.220;2023-02-22T09:26:30;89803.25;;;20.91;26.70
22649;BME280;11491;41.942;24.220;2023-02-22T09:28:57;89794.84;;;21.36;27.03
22649;BME280;11491;41.942;24.220;2023-02-22T09:31:24;89792.38;;;21.72;27.17
22649;BME280;11491;41.942;24.220;2023-02-22T09:33:52;89795.94;;;22.12;26.29
22649;BME280;11491;41.942;24.220;2023-02-22T09:36:19;89778.34;;;22.17;25.53
22649;BME280;11491;41.942;24.220;2023-02-22T09:38:46;89787.91;;;22.05;26.09
22649;BME280;11491;41.942;24.220;2023-02-22T09:41:17;89787.03;;;21.14;24.30
22649;BME280;11491;41.942;24.220;2023-02-22T09:43:50;89784.41;;;19.70;26.12
22649;BME280;11491;41.942;24.220;2023-02-22T09:46:25;89786.53;;;19.93;27.03
22649;BME280;11491;41.942;24.220;2023-02-22T09:49:03;89779.19;;;20.24;27.36
22649;BME280;11491;41.942;24.220;2023-02-22T09:51:36;89789.09;;;21.03;26.50
22649;BME280;11491;41.942;24.220;2023-02-22T09:54:13;89774.91;;;21.69;25.37
22649;BME280;11491;41.942;24.220;2023-02-22T09:56:44;89775.56;;;21.26;25.46
22649;BME280;11491;41.942;24.220;2023-02-22T09:59:16;89772.03;;;19.69;26.77
22649;BME280;11491;41.942;24.220;2023-02-22T10:01:48;89769.22;;;19.31;26.61
22649;BME280;11491;41.942;24.220;2023-02-22T10:04:20;89765.03;;;19.71;27.78
22649;BME280;11491;41.942;24.220;2023-02-22T10:06:58;89759.97;;;20.76;26.68
22649;BME280;11491;41.942;24.220;2023-02-22T10:09:32;89759.25;;;20.72;25.26
22649;BME280;11491;41.942;24.220;2023-02-22T10:12:05;89753.50;;;21.48;26.10
22649;BME280;11491;41.942;24.220;2023-02-22T10:15:02;89746.63;;;22.30;25.97
22649;BME280;11491;41.942;24.220;2023-02-22T10:17:35;89737.88;;;22.79;24.97
22649;BME280;11491;41.942;24.220;2023-02-22T10:20:25;89736.66;;;23.00;24.04
22649;BME280;11491;41.942;24.220;2023-02-22T10:23:08;89736.00;;;22.16;23.84
22649;BME280;11491;41.942;24.220;2023-02-22T10:25:40;89735.81;;;22.03;25.19
22649;BME280;11491;41.942;24.220;2023-02-22T10:28:14;89724.94;;;22.27;25.38
22649;BME280;11491;41.942;24.220;2023-02-22T10:30:45;89720.16;;;22.31;25.66
22649;BME280;11491;41.942;24.220;2023-02-22T10:33:20;89712.03;;;22.07;25.31
22649;BME280;11491;41.942;24.220;2023-02-22T10:35:51;89705.84;;;21.63;26.11
22649;BME280;11491;41.942;24.220;2023-02-22T10:38:19;89718.34;;;22.04;25.21
22649;BME280;11491;41.942;24.220;2023-02-22T10:40:49;89702.38;;;22.46;23.88
22649;BME280;11491;41.942;24.220;2023-02-22T10:43:20;89699.88;;;22.72;25.07
22649;BME280;11491;41.942;24.220;2023-02-22T10:45:50;89701.75;;;23.11;24.80
22649;BME280;11491;41.942;24.220;2023-02-22T10:48:21;89690.38;;;22.96;24.09
22649;BME280;11491;41.942;24.220;2023-02-22T10:50:51;89691.66;;;22.92;24.31
22649;BME280;11491;41.942;24.220;2023-02-22T10:53:19;89685.97;;;23.03;23.72
22649;BME280;11491;41.942;24.220;2023-02-22T10:56:12;89682.91;;;23.17;22.62
22649;BME280;11491;41.942;24.220;2023-02-22T10:58:42;89671.50;;;23.22;23.95
22649;BME280;11491;41.942;24.220;2023-02-22T11:01:20;89680.19;;;23.50;23.19
22649;BME280;11491;41.942;24.220;2023-02-22T11:03:56;89669.19;;;23.53;23.82
22649;BME280;11491;41.942;24.220;2023-02-22T11:06:25;89678.84;;;23.41;23.33
22649;BME280;11491;41.942;24.220;2023-02-22T11:09:03;89676.50;;;22.91;23.93
22649;BME280;11491;41.942;24.220;2023-02-22T11:11:31;89666.38;;;23.08;25.56
22649;BME280;11491;41.942;24.220;2023-02-22T11:13:58;89666.72;;;22.93;24.41
22649;BME280;11491;41.942;24.220;2023-02-22T11:16:31;89673.16;;;22.83;24.66
22649;BME280;11491;41.942;24.220;2023-02-22T11:18:59;89658.16;;;22.75;24.54
22649;BME280;11491;41.942;24.220;2023-02-22T11:21:29;89672.53;;;22.75;24.39
22649;BME280;11491;41.942;24.220;2023-02-22T11:24:02;89660.97;;;22.35;24.93
22649;BME280;11491;41.942;24.220;2023-02-22T11:26:36;89659.59;;;22.27;26.54
22649;BME280;11491;41.942;24.220;2023-02-22T11:29:10;89654.41;;;22.12;25.19
22649;BME280;11491;41.942;24.220;2023-02-22T11:31:41;89633.47;;;21.69;25.17
22649;BME280;11491;41.942;24.220;2023-02-22T11:34:28;89657.34;;;21.82;25.58
22649;BME280;11491;41.942;24.220;2023-02-22T11:37:14;89659.13;;;22.08;25.05
22649;BME280;11491;41.942;24.220;2023-02-22T11:39:41;89647.00;;;22.13;24.51
22649;BME280;11491;41.942;24.220;2023-02-22T11:42:22;89647.44;;;22.11;24.91
22649;BME280;11491;41.942;24.220;2023-02-22T11:45:07;89644.41;;;22.06;26.17
22649;BME280;11491;41.942;24.220;2023-02-22T11:47:34;89647.44;;;22.11;25.71
22649;BME280;11491;41.942;24.220;2023-02-22T11:50:09;89632.41;;;21.63;25.06
22649;BME280;11491;41.942;24.220;2023-02-22T11:52:42;89636.47;;;21.55;25.67
22649;BME280;11491;41.942;24.220;2023-02-22T11:55:16;89635.75;;;21.91;25.18
22649;BME280;11491;41.942;24.220;2023-02-22T11:57:54;89628.16;;;22.02;24.75
22649;BME280;11491;41.942;24.220;2023-02-22T12:00:39;89622.66;;;22.26;25.36
22649;BME280;11491;41.942;24.220;2023-02-22T12:03:39;89624.09;;;22.10;25.59
22649;BME280;11491;41.942;24.220;2023-02-22T12:06:18;89626.44;;;21.92;24.86
22649;BME280;11491;41.942;24.220;2023-02-22T12:09:02;89634.88;;;21.34;25.11
22649;BME280;11491;41.942;24.220;2023-02-22T12:11:40;89621.19;;;21.61;25.80
22649;BME280;11491;41.942;24.220;2023-02-22T12:14:20;89622.31;;;21.84;25.34
22649;BME280;11491;41.942;24.220;2023-02-22T12:17:08;89528.63;;;20.81;25.81
22649;BME280;11491;41.942;24.220;2023-02-22T12:19:41;89619.94;;;21.66;25.77
22649;BME280;11491;41.942;24.220;2023-02-22T12:22:13;89619.41;;;21.75;25.94
22649;BME280;11491;41.942;24.220;2023-02-22T12:24:46;89617.91;;;21.90;24.90
22649;BME280;11491;41.942;24.220;2023-02-22T12:27:19;89616.22;;;22.16;25.59
22649;BME280;11491;41.942;24.220;2023-02-22T12:29:50;89618.53;;;22.18;25.23
22649;BME280;11491;41.942;24.220;2023-02-22T12:32:23;89610.94;;;21.89;25.41
22649;BME280;11491;41.942;24.220;2023-02-22T12:34:56;89614.44;;;21.89;25.19
22649;BME280;11491;41.942;24.220;2023-02-22T12:37:27;89603.59;;;22.26;25.57
22649;BME280;11491;41.942;24.220;2023-02-22T12:40:03;89607.22;;;22.39;24.85
22649;BME280;11491;41.942;24.220;2023-02-22T12:42:43;89606.78;;;21.64;25.32
22649;BME280;11491;41.942;24.220;2023-02-22T12:45:18;89584.66;;;21.62;25.85
22649;BME280;11491;41.942;24.220;2023-02-22T12:48:01;89605.56;;;21.65;25.40
22649;BME280;11491;41.942;24.220;2023-02-22T12:50:31;89600.41;;;21.91;25.77
22649;BME280;11491;41.942;24.220;2023-02-22T12:53:05;89598.03;;;21.93;25.91
22649;BME280;11491;41.942;24.220;2023-02-22T12:55:37;89604.53;;;21.79;25.88
22649;BME280;11491;41.942;24.220;2023-02-22T12:58:17;89599.41;;;21.61;24.54
22649;BME280;11491;41.942;24.220;2023-02-22T13:00:52;89608.34;;;21.42;25.91
22649;BME280;11491;41.942;24.220;2023-02-22T13:03:32;89603.72;;;21.39;25.92
22649;BME280;11491;41.942;24.220;2023-02-22T13:06:13;89604.09;;;21.17;26.30
22649;BME280;11491;41.942;24.220;2023-02-22T13:08:50;89566.25;;;21.50;25.87
22649;BME280;11491;41.942;24.220;2023-02-22T13:11:24;89599.44;;;22.01;25.58
22649;BME280;11491;41.942;24.220;2023-02-22T13:14:02;89602.63;;;21.96;24.70
22649;BME280;11491;41.942;24.220;2023-02-22T13:16:36;89599.09;;;21.99;26.22